Time;durP1;ratioP1;P1;durP2;ratioP2;P2;SDS_P1;SDS_P2;PMS_P1;PMS_P2;Temp;Humidity;BMP_temperature;BMP_pressure;BME280_temperature;BME280_humidity;BME280_pressure;Samples;Min_cycle;Max_cycle;Signal;HPM_P1;HPM_P2
2023/01/20 00:01:13;;;;;;;3.45;3.15;;;17.20;62.10;;;;;;5082775;28;20032;-23
2023/01/20 00:03:39;;;;;;;3.28;2.97;;;17.20;62.20;;;;;;5086731;28;20036;-18
2023/01/20 00:06:04;;;;;;;3.47;3.20;;;17.30;62.10;;;;;;5088022;28;20020;-25
2023/01/20 00:08:30;;;;;;;3.40;2.95;;;17.30;62.00;;;;;;5089131;28;20043;-26
2023/01/20 00:10:56;;;;;;;3.40;3.10;;;17.30;61.90;;;;;;5088488;28;20024;-30
2023/01/20 00:13:21;;;;;;;3.60;3.30;;;17.30;61.80;;;;;;5082791;28;20028;-31
2023/01/20 00:15:47;;;;;;;3.83;3.53;;;17.40;61.80;;;;;;5089525;28;20426;-25
2023/01/20 00:18:13;;;;;;;3.10;2.78;;;17.20;61.80;;;;;;5090439;28;20035;-31
2023/01/20 00:20:38;;;;;;;3.45;3.22;;;17.20;62.10;;;;;;5088861;28;20084;-25
2023/01/20 00:23:04;;;;;;;2.88;2.67;;;17.30;61.90;;;;;;5090089;28;20375;-26
2023/01/20 00:25:30;;;;;;;3.30;3.10;;;17.20;62.10;;;;;;5087640;28;20032;-29
2023/01/20 00:27:55;;;;;;;3.67;3.33;;;17.10;62.30;;;;;;5090406;28;20024;-24
2023/01/20 00:30:21;;;;;;;2.92;2.72;;;17.20;62.10;;;;;;5089666;28;20491;-20
2023/01/20 00:32:46;;;;;;;2.70;2.50;;;17.20;62.10;;;;;;5084202;28;20116;-36
2023/01/20 00:35:12;;;;;;;3.40;3.10;;;17.20;62.00;;;;;;5088769;28;20077;-26
2023/01/20 00:37:38;;;;;;;3.30;3.10;;;17.20;62.00;;;;;;5087465;28;20024;-18
2023/01/20 00:40:04;;;;;;;2.80;2.60;;;17.30;61.70;;;;;;5088104;28;20023;-22
2023/01/20 00:42:30;;;;;;;2.72;2.53;;;17.10;62.10;;;;;;5089953;28;20031;-21
2023/01/20 00:44:55;;;;;;;2.90;2.70;;;17.10;62.00;;;;;;5086302;28;20521;-18
2023/01/20 00:47:21;;;;;;;3.25;3.05;;;17.20;62.10;;;;;;5089376;28;20055;-28
2023/01/20 00:49:47;;;;;;;3.33;2.88;;;17.10;62.10;;;;;;5084234;28;20081;-20
2023/01/20 00:52:12;;;;;;;3.10;2.75;;;17.10;62.30;;;;;;5085421;28;20045;-29
2023/01/20 00:54:38;;;;;;;2.63;2.45;;;17.00;62.00;;;;;;5088725;28;20039;-26
2023/01/20 00:57:04;;;;;;;3.20;2.90;;;17.10;62.20;;;;;;5087246;28;20070;-30
2023/01/20 00:59:29;;;;;;;2.80;2.60;;;17.20;61.80;;;;;;5087575;28;20063;-37
2023/01/20 01:01:55;;;;;;;3.20;3.00;;;17.20;61.80;;;;;;5088054;28;20032;-18
2023/01/20 01:04:20;;;;;;;2.72;2.53;;;17.20;61.90;;;;;;5080683;28;20116;-27
2023/01/20 01:06:46;;;;;;;2.72;2.58;;;17.20;61.80;;;;;;5080728;28;20040;-21
2023/01/20 01:09:11;;;;;;;2.38;2.28;;;17.10;61.70;;;;;;5088503;28;20474;-17
2023/01/20 01:11:37;;;;;;;2.60;2.50;;;17.10;62.00;;;;;;5088352;28;20035;-22
2023/01/20 01:14:03;;;;;;;2.60;2.50;;;17.10;62.00;;;;;;5089230;28;20058;-18
2023/01/20 01:16:28;;;;;;;2.70;2.50;;;17.20;61.80;;;;;;5084749;28;20024;-23
2023/01/20 01:18:54;;;;;;;2.78;2.58;;;17.20;61.90;;;;;;5086637;28;20063;-29
2023/01/20 01:21:20;;;;;;;2.67;2.47;;;17.10;61.80;;;;;;5087072;28;20084;-20
2023/01/20 01:23:46;;;;;;;2.83;2.63;;;17.10;62.00;;;;;;5083521;28;20024;-16
2023/01/20 01:26:12;;;;;;;2.17;2.08;;;17.10;61.80;;;;;;5088464;28;20562;-30
2023/01/20 01:28:37;;;;;;;2.80;2.60;;;17.10;61.80;;;;;;5087982;28;20032;-21
2023/01/20 01:31:04;;;;;;;2.60;2.40;;;17.00;62.00;;;;;;5087243;28;20012;-30
2023/01/20 01:33:30;;;;;;;2.80;2.60;;;17.00;62.00;;;;;;5087621;28;20548;-19
2023/01/20 01:36:00;;;;;;;2.25;2.15;;;17.00;61.80;;;;;;5087230;28;20024;-25
2023/01/20 01:38:25;;;;;;;2.63;2.42;;;17.10;61.90;;;;;;5081143;28;21501;-25
2023/01/20 01:40:51;;;;;;;2.22;2.03;;;17.00;62.10;;;;;;5087869;28;20115;-17
2023/01/20 01:43:36;;;;;;;2.60;2.40;;;17.00;61.90;;;;;;5086735;28;20035;-20
2023/01/20 01:46:02;;;;;;;2.67;2.47;;;17.10;61.80;;;;;;5086931;28;20044;-23
2023/01/20 01:48:38;;;;;;;2.30;2.10;;;17.00;62.00;;;;;;5085956;28;20109;-17
2023/01/20 01:51:10;;;;;;;2.55;2.40;;;16.90;62.00;;;;;;5082111;28;20115;-24
2023/01/20 01:53:40;;;;;;;1.90;1.80;;;16.90;62.10;;;;;;5079173;28;20028;-10
2023/01/20 01:56:06;;;;;;;2.35;2.15;;;16.90;62.30;;;;;;5082603;28;20578;-29
2023/01/20 01:58:50;;;;;;;2.20;2.00;;;16.90;62.20;;;;;;5053349;28;20044;-12
2023/01/20 02:01:16;;;;;;;2.50;2.30;;;17.00;61.80;;;;;;5083831;28;20036;-14
2023/01/20 02:03:46;;;;;;;2.47;2.28;;;17.00;61.90;;;;;;5088255;28;20036;-18
2023/01/20 02:06:12;;;;;;;2.42;2.22;;;16.90;62.00;;;;;;5085573;28;20440;-16
2023/01/20 02:08:38;;;;;;;2.10;2.00;;;16.90;62.00;;;;;;5087649;28;20046;-16
2023/01/20 02:11:04;;;;;;;2.05;1.95;;;16.90;62.00;;;;;;5086262;28;20073;-9
2023/01/20 02:13:29;;;;;;;2.03;1.92;;;16.90;62.10;;;;;;5084931;28;20107;-16
2023/01/20 02:16:05;;;;;;;1.95;1.85;;;16.80;62.20;;;;;;5086937;28;20044;-16
2023/01/20 02:18:46;;;;;;;2.30;2.10;;;16.80;62.10;;;;;;5086604;28;20032;-13
2023/01/20 02:21:15;;;;;;;2.33;2.15;;;16.90;62.20;;;;;;5084497;28;20103;-10
2023/01/20 02:24:18;;;;;;;2.10;2.00;;;16.90;61.90;;;;;;5086441;28;20058;-33
2023/01/20 02:26:46;;;;;;;2.03;1.92;;;16.70;62.40;;;;;;5084378;28;20059;-13
2023/01/20 02:29:30;;;;;;;2.30;2.10;;;16.80;62.20;;;;;;5086340;28;20073;-23
2023/01/20 02:32:17;;;;;;;2.00;1.90;;;16.70;62.60;;;;;;5083482;28;20017;-34
2023/01/20 02:35:23;;;;;;;1.98;1.88;;;16.70;62.30;;;;;;5099187;28;20033;-48
2023/01/20 02:38:06;;;;;;;2.00;1.90;;;16.90;62.10;;;;;;5084771;28;20028;-21
2023/01/20 02:40:39;;;;;;;1.90;1.80;;;16.70;62.40;;;;;;5085514;28;20020;-18
2023/01/20 02:43:21;;;;;;;1.98;1.88;;;16.80;61.90;;;;;;5086945;28;20032;-14
2023/01/20 02:46:07;;;;;;;2.33;2.22;;;16.80;61.80;;;;;;5084439;28;20035;-26
2023/01/20 02:48:53;;;;;;;1.90;1.80;;;16.70;62.10;;;;;;5086381;28;20054;-12
2023/01/20 02:51:31;;;;;;;2.08;1.88;;;16.70;62.20;;;;;;5080011;28;20047;-14
2023/01/20 02:54:03;;;;;;;1.95;1.85;;;16.80;62.20;;;;;;5073843;28;20694;-22
2023/01/20 02:56:28;;;;;;;2.13;2.00;;;16.70;62.10;;;;;;5089022;28;20078;-25
2023/01/20 02:59:08;;;;;;;2.50;2.33;;;16.70;62.40;;;;;;5086026;28;20052;-36
2023/01/20 03:01:52;;;;;;;1.80;1.70;;;16.70;62.50;;;;;;5085630;28;20032;-34
2023/01/20 03:04:19;;;;;;;2.10;2.00;;;16.70;62.50;;;;;;5085591;28;20440;-33
2023/01/20 03:06:54;;;;;;;2.13;2.03;;;16.60;62.40;;;;;;5089926;28;20036;-10
2023/01/20 03:09:27;;;;;;;1.80;1.70;;;16.60;62.50;;;;;;5089366;28;20021;-31
2023/01/20 03:11:59;;;;;;;2.42;2.33;;;16.60;62.70;;;;;;5088153;28;20074;-29
2023/01/20 03:14:25;;;;;;;1.80;1.70;;;16.60;62.60;;;;;;5071786;28;20095;-22
2023/01/20 03:16:51;;;;;;;2.25;2.05;;;16.60;62.60;;;;;;5087899;28;20162;-30
2023/01/20 03:19:16;;;;;;;1.98;1.85;;;16.60;62.60;;;;;;5085744;28;20039;-11
2023/01/20 03:21:42;;;;;;;2.10;2.00;;;16.50;62.70;;;;;;5086533;28;20028;-23
2023/01/20 03:24:08;;;;;;;2.30;1.80;;;16.60;62.60;;;;;;5087505;28;20031;-27
2023/01/20 03:26:33;;;;;;;2.20;2.10;;;16.60;62.60;;;;;;5088200;28;20563;-32
2023/01/20 03:29:05;;;;;;;1.75;1.65;;;16.50;62.80;;;;;;5089502;28;20102;-33
2023/01/20 03:31:39;;;;;;;1.90;1.80;;;16.50;62.70;;;;;;5087026;28;20024;-18
2023/01/20 03:34:09;;;;;;;;;;;16.50;62.80;;;;;;5089005;28;20177;-24
2023/01/20 03:36:35;;;;;;;1.85;1.75;;;16.50;62.90;;;;;;5086808;28;19915;-17
2023/01/20 03:39:00;;;;;;;1.80;1.70;;;16.50;62.80;;;;;;5072174;28;20024;-46
2023/01/20 03:41:32;;;;;;;1.85;1.75;;;16.50;62.80;;;;;;5083197;28;20024;-26
2023/01/20 03:44:02;;;;;;;1.70;1.60;;;16.50;62.80;;;;;;5090869;28;20024;-23
2023/01/20 03:46:53;;;;;;;1.77;1.67;;;16.40;62.70;;;;;;5088257;28;22128;-45
2023/01/20 03:49:38;;;;;;;1.98;1.50;;;16.40;62.70;;;;;;5067270;28;20048;-27
2023/01/20 03:52:35;;;;;;;2.00;1.90;;;16.40;62.90;;;;;;5051731;28;20021;-23
2023/01/20 03:55:05;;;;;;;1.75;1.65;;;16.40;62.80;;;;;;5052687;28;20078;-29
2023/01/20 03:57:34;;;;;;;2.00;1.90;;;16.40;62.80;;;;;;5049947;28;20065;-22
2023/01/20 03:59:59;;;;;;;1.48;1.38;;;16.50;62.80;;;;;;5064098;28;20044;-23
2023/01/20 04:02:25;;;;;;;1.67;1.58;;;16.40;62.70;;;;;;5051095;28;20115;-28
2023/01/20 04:04:51;;;;;;;1.63;1.52;;;16.40;62.70;;;;;;5051292;28;20082;-9
2023/01/20 04:07:19;;;;;;;1.60;1.50;;;16.40;62.80;;;;;;5050211;28;20771;-29
2023/01/20 04:09:48;;;;;;;1.60;1.50;;;16.40;62.70;;;;;;5048700;28;20029;-26
2023/01/20 04:12:13;;;;;;;1.65;1.55;;;16.40;62.80;;;;;;5049764;28;20028;-19
2023/01/20 04:14:39;;;;;;;1.88;1.70;;;16.40;62.80;;;;;;5066358;28;20032;-22
2023/01/20 04:17:06;;;;;;;1.70;1.60;;;16.40;62.80;;;;;;5049509;28;20025;-31
2023/01/20 04:19:32;;;;;;;1.65;1.52;;;16.40;62.80;;;;;;5050105;28;20076;-11
2023/01/20 04:22:18;;;;;;;1.50;1.40;;;16.40;62.90;;;;;;5066346;28;20056;-9
2023/01/20 04:25:04;;;;;;;1.55;1.45;;;16.40;62.90;;;;;;5064961;28;20528;-22
2023/01/20 04:27:30;;;;;;;1.55;1.45;;;16.40;62.80;;;;;;5076070;28;20495;-33
2023/01/20 04:29:55;;;;;;;1.40;1.30;;;16.40;62.80;;;;;;5087307;28;20058;-35
2023/01/20 04:32:21;;;;;;;2.00;1.90;;;16.40;62.80;;;;;;5089184;28;20051;-15
2023/01/20 04:34:50;;;;;;;1.50;1.40;;;16.30;62.80;;;;;;5088461;28;20051;-21
2023/01/20 04:37:15;;;;;;;1.55;1.45;;;16.30;62.90;;;;;;5086844;28;20016;-10
2023/01/20 04:39:41;;;;;;;1.58;1.48;;;16.30;62.90;;;;;;5083939;28;20085;-18
2023/01/20 04:42:08;;;;;;;1.42;1.33;;;16.30;63.00;;;;;;5089486;28;20028;-13
2023/01/20 04:44:34;;;;;;;1.25;1.15;;;16.30;62.80;;;;;;5087526;28;20020;-14
2023/01/20 04:47:00;;;;;;;1.30;1.20;;;16.30;62.80;;;;;;5087447;28;20036;-50
2023/01/20 04:49:25;;;;;;;1.23;1.20;;;16.30;62.80;;;;;;5088828;28;20024;-12
2023/01/20 04:51:51;;;;;;;1.70;1.60;;;16.30;62.80;;;;;;5087552;28;20031;-13
2023/01/20 04:54:16;;;;;;;1.35;1.25;;;16.40;62.80;;;;;;5085513;28;20031;-15
2023/01/20 04:56:43;;;;;;;1.35;1.25;;;16.30;62.80;;;;;;5085424;28;20052;-29
2023/01/20 04:59:08;;;;;;;1.25;1.23;;;16.30;62.80;;;;;;5084304;28;20020;-15
2023/01/20 05:01:34;;;;;;;2.15;1.30;;;16.30;62.80;;;;;;5088662;28;20039;-30
2023/01/20 05:03:59;;;;;;;1.40;1.40;;;16.30;62.80;;;;;;5086350;28;20031;-36
2023/01/20 05:06:25;;;;;;;1.40;1.27;;;16.30;62.80;;;;;;5088599;28;20058;-38
2023/01/20 05:08:50;;;;;;;1.40;1.30;;;16.30;62.80;;;;;;5087167;28;20028;-21
2023/01/20 05:11:16;;;;;;;1.60;1.50;;;16.30;63.00;;;;;;5086193;28;20069;-15
2023/01/20 05:13:42;;;;;;;1.30;1.20;;;16.30;62.90;;;;;;5083748;28;20024;-18
2023/01/20 05:16:08;;;;;;;4.60;1.60;;;16.30;62.90;;;;;;5089323;28;20051;-11
2023/01/20 05:18:33;;;;;;;1.00;1.00;;;16.30;62.90;;;;;;5090446;28;20036;-38
2023/01/20 05:20:59;;;;;;;1.30;1.17;;;16.20;62.80;;;;;;5086358;28;20513;-24
2023/01/20 05:23:25;;;;;;;1.10;1.10;;;16.30;62.90;;;;;;5088594;28;20016;-19
2023/01/20 05:25:51;;;;;;;1.30;1.30;;;16.30;63.00;;;;;;5087649;28;20036;-14
2023/01/20 05:28:17;;;;;;;1.40;1.30;;;16.30;62.90;;;;;;5088772;28;20093;-15
2023/01/20 05:30:42;;;;;;;1.00;1.00;;;16.30;62.80;;;;;;5087465;28;20496;-21
2023/01/20 05:33:08;;;;;;;1.15;1.15;;;16.30;62.80;;;;;;5088756;28;20020;-20
2023/01/20 05:35:34;;;;;;;1.35;1.30;;;16.30;62.70;;;;;;5083160;28;20452;-22
2023/01/20 05:37:59;;;;;;;1.50;1.40;;;16.30;62.80;;;;;;5088132;28;20024;-26
2023/01/20 05:40:25;;;;;;;1.35;1.27;;;16.30;62.60;;;;;;5088630;28;20016;-24
2023/01/20 05:42:50;;;;;;;1.23;1.20;;;16.30;62.50;;;;;;5086434;28;20080;-23
2023/01/20 05:45:16;;;;;;;1.38;1.27;;;16.30;62.60;;;;;;5089110;28;20543;-24
2023/01/20 05:47:41;;;;;;;1.33;1.23;;;16.30;62.60;;;;;;5086538;28;20043;-14
2023/01/20 05:50:07;;;;;;;1.40;1.30;;;16.30;62.70;;;;;;5088654;28;20042;-23
2023/01/20 05:52:33;;;;;;;1.85;1.40;;;16.30;62.40;;;;;;5087309;28;20028;-22
2023/01/20 05:54:59;;;;;;;1.30;1.30;;;16.30;62.30;;;;;;5084050;28;20031;-36
2023/01/20 05:57:24;;;;;;;0.90;0.90;;;16.30;62.40;;;;;;5067098;28;20666;-28
2023/01/20 05:59:51;;;;;;;1.10;1.10;;;16.30;62.50;;;;;;5067641;28;20162;-18
2023/01/20 06:02:18;;;;;;;1.10;1.10;;;16.20;62.50;;;;;;5062858;28;20111;-11
2023/01/20 06:04:46;;;;;;;1.10;1.00;;;16.20;62.50;;;;;;5066617;28;20062;-29
2023/01/20 06:07:12;;;;;;;0.98;0.98;;;16.30;62.70;;;;;;5064727;28;20040;-41
2023/01/20 06:09:38;;;;;;;1.13;1.10;;;16.30;62.20;;;;;;5067622;28;20384;-27
2023/01/20 06:12:04;;;;;;;0.95;0.95;;;16.20;62.50;;;;;;5067437;28;20043;-13
2023/01/20 06:14:29;;;;;;;1.20;1.10;;;16.20;62.60;;;;;;5065986;28;20029;-45
2023/01/20 06:16:55;;;;;;;1.02;1.02;;;16.20;62.80;;;;;;5063299;28;20021;-9
2023/01/20 06:19:20;;;;;;;1.20;1.10;;;16.20;62.90;;;;;;5067947;28;20078;-24
2023/01/20 06:21:46;;;;;;;1.10;1.10;;;16.20;62.80;;;;;;5066720;28;20032;-15
2023/01/20 06:24:12;;;;;;;1.20;1.10;;;16.20;63.70;;;;;;5070064;28;20091;-18
2023/01/20 06:26:38;;;;;;;1.40;1.13;;;16.30;62.60;;;;;;5065422;28;20044;-26
2023/01/20 06:29:03;;;;;;;0.80;0.80;;;16.40;62.30;;;;;;5069321;28;20099;-17
2023/01/20 06:31:29;;;;;;;1.27;1.20;;;16.30;62.40;;;;;;5071195;28;20050;-25
2023/01/20 06:33:55;;;;;;;0.88;0.88;;;16.30;62.70;;;;;;5071603;28;20016;-40
2023/01/20 06:36:21;;;;;;;1.27;1.17;;;16.20;62.70;;;;;;5070067;28;20029;-47
2023/01/20 06:38:49;;;;;;;0.80;0.80;;;16.40;62.60;;;;;;5069137;28;20099;-35
2023/01/20 06:41:16;;;;;;;0.80;0.80;;;16.30;62.50;;;;;;4712617;28;10000380;-16
2023/01/20 06:43:41;;;;;;;1.20;1.10;;;16.30;62.80;;;;;;5064759;28;20025;-11
2023/01/20 06:46:10;;;;;;;1.42;1.05;;;16.30;62.60;;;;;;5067531;28;20109;-35
2023/01/20 06:48:35;;;;;;;1.17;1.13;;;16.50;62.40;;;;;;5065915;28;20402;-30
2023/01/20 06:51:01;;;;;;;0.93;0.93;;;16.40;62.50;;;;;;5064937;28;20032;-20
2023/01/20 06:53:27;;;;;;;1.10;1.00;;;16.30;62.80;;;;;;5062614;28;20033;-19
2023/01/20 06:55:56;;;;;;;1.27;0.90;;;16.30;62.80;;;;;;5075350;28;20595;-24
2023/01/20 06:58:26;;;;;;;0.90;0.90;;;16.20;63.20;;;;;;5085554;28;20090;-30
2023/01/20 07:00:52;;;;;;;0.65;0.65;;;16.10;63.40;;;;;;5082412;28;20498;-20
2023/01/20 07:03:17;;;;;;;1.38;1.27;;;16.10;63.50;;;;;;5084867;28;20056;-22
2023/01/20 07:05:43;;;;;;;0.70;0.70;;;16.10;63.50;;;;;;5086083;28;20042;-13
2023/01/20 07:08:09;;;;;;;0.80;0.80;;;16.10;63.50;;;;;;5085618;28;20031;-11
2023/01/20 07:10:35;;;;;;;1.00;1.00;;;16.10;63.60;;;;;;5084749;28;20028;-17
2023/01/20 07:13:00;;;;;;;0.95;0.95;;;16.10;63.50;;;;;;5085270;28;20525;-14
2023/01/20 07:15:26;;;;;;;0.63;0.63;;;16.10;63.40;;;;;;5084390;28;20374;-36
2023/01/20 07:17:51;;;;;;;0.80;0.77;;;16.30;63.10;;;;;;5084409;28;20024;-27
2023/01/20 07:20:17;;;;;;;0.80;0.80;;;16.20;63.10;;;;;;5084416;28;20561;-41
2023/01/20 07:22:42;;;;;;;0.90;0.90;;;16.20;63.30;;;;;;5084390;28;20028;-23
2023/01/20 07:25:08;;;;;;;0.82;0.82;;;16.20;63.20;;;;;;5083577;28;20021;-17
2023/01/20 07:27:34;;;;;;;0.60;0.60;;;16.10;63.40;;;;;;5083705;28;20103;-15
2023/01/20 07:29:59;;;;;;;0.75;0.75;;;16.20;63.30;;;;;;5082920;28;20119;-13
2023/01/20 07:32:29;;;;;;;1.10;1.00;;;16.30;62.90;;;;;;5081070;28;20013;-23
2023/01/20 07:34:54;;;;;;;2.35;0.88;;;16.40;62.60;;;;;;5083026;28;20024;-13
2023/01/20 07:37:20;;;;;;;0.88;0.88;;;16.40;62.70;;;;;;5085747;28;20027;-19
2023/01/20 07:39:45;;;;;;;0.60;0.60;;;16.40;62.60;;;;;;5081325;28;20111;-27
2023/01/20 07:42:11;;;;;;;0.75;0.75;;;16.50;62.50;;;;;;5083249;28;20031;-14
2023/01/20 07:44:36;;;;;;;1.17;0.93;;;16.40;62.50;;;;;;5083191;28;20528;-24
2023/01/20 07:47:02;;;;;;;0.70;0.70;;;16.40;62.50;;;;;;5082862;28;20115;-12
2023/01/20 07:49:28;;;;;;;0.88;0.88;;;16.40;62.60;;;;;;5083681;28;20023;-16
2023/01/20 07:51:53;;;;;;;0.90;0.90;;;16.40;62.50;;;;;;5083217;28;20031;-31
2023/01/20 07:54:19;;;;;;;0.68;0.68;;;16.50;62.40;;;;;;5086158;28;20031;-12
2023/01/20 07:56:44;;;;;;;0.80;0.80;;;16.50;62.40;;;;;;5083242;28;20599;-19
2023/01/20 07:59:10;;;;;;;0.75;0.75;;;16.50;62.30;;;;;;5084670;28;20020;-12
2023/01/20 08:01:36;;;;;;;1.98;0.98;;;16.40;62.40;;;;;;5086017;28;20032;-20
2023/01/20 08:04:01;;;;;;;0.93;0.77;;;16.20;62.80;;;;;;5076867;28;20498;-28
2023/01/20 08:06:27;;;;;;;0.80;0.80;;;16.10;64.20;;;;;;5083999;28;20070;-25
2023/01/20 08:08:53;;;;;;;0.90;0.90;;;16.10;63.40;;;;;;5089490;28;20028;-19
2023/01/20 08:11:19;;;;;;;2.13;1.00;;;16.00;63.40;;;;;;5090521;28;20711;-12
2023/01/20 08:13:45;;;;;;;0.77;0.77;;;16.10;63.10;;;;;;5089356;28;20028;-20
2023/01/20 08:16:12;;;;;;;0.90;0.90;;;16.20;63.00;;;;;;5089671;28;20055;-31
2023/01/20 08:18:38;;;;;;;0.68;0.68;;;16.10;63.00;;;;;;5088338;28;20060;-12
2023/01/20 08:21:05;;;;;;;0.52;0.52;;;16.00;63.10;;;;;;5089744;28;20097;-21
2023/01/20 08:23:32;;;;;;;0.82;0.80;;;16.10;63.20;;;;;;5088962;28;20163;-20
2023/01/20 08:25:58;;;;;;;0.77;0.60;;;16.10;63.80;;;;;;5089395;28;20066;-12
2023/01/20 08:28:25;;;;;;;0.90;0.90;;;16.10;63.00;;;;;;5088836;28;20102;-16
2023/01/20 08:30:50;;;;;;;2.45;0.90;;;16.10;63.00;;;;;;5089631;28;20032;-14
2023/01/20 08:33:16;;;;;;;0.70;0.70;;;16.10;62.60;;;;;;5089277;28;20391;-20
2023/01/20 08:35:41;;;;;;;0.88;0.88;;;16.10;63.30;;;;;;5086940;28;20031;-24
2023/01/20 08:38:08;;;;;;;0.77;0.77;;;16.20;62.30;;;;;;5088540;28;20024;-12
2023/01/20 08:40:33;;;;;;;1.08;1.00;;;16.10;62.60;;;;;;5089065;28;20380;-26
2023/01/20 08:42:59;;;;;;;0.80;0.80;;;16.10;62.60;;;;;;5089071;28;20541;-24
2023/01/20 08:45:24;;;;;;;0.80;0.80;;;16.10;62.50;;;;;;5088280;28;20020;-19
2023/01/20 08:47:50;;;;;;;0.60;0.60;;;16.10;62.30;;;;;;5087903;28;20123;-12
2023/01/20 08:50:16;;;;;;;1.10;0.80;;;16.10;62.40;;;;;;5087508;28;20023;-19
2023/01/20 08:52:41;;;;;;;0.90;0.90;;;16.10;62.30;;;;;;5089289;28;20111;-26
2023/01/20 08:55:08;;;;;;;0.80;0.80;;;16.00;62.60;;;;;;5088853;28;20044;-15
2023/01/20 08:57:33;;;;;;;0.90;0.90;;;16.10;62.50;;;;;;5087940;28;20577;-18
2023/01/20 08:59:59;;;;;;;0.82;0.70;;;16.00;62.30;;;;;;5088918;28;20028;-12
2023/01/20 09:02:24;;;;;;;0.80;0.80;;;16.10;62.30;;;;;;5086965;28;20051;-30
2023/01/20 09:04:50;;;;;;;0.80;0.80;;;16.10;63.00;;;;;;5088994;28;20030;-16
2023/01/20 09:07:17;;;;;;;2.30;0.85;;;16.20;62.80;;;;;;5082667;28;20501;-18
2023/01/20 09:09:42;;;;;;;1.00;0.88;;;16.20;61.90;;;;;;5088184;28;20059;-29
2023/01/20 09:12:08;;;;;;;1.70;0.80;;;16.00;62.40;;;;;;5087794;28;20067;-26
2023/01/20 09:14:33;;;;;;;0.95;0.88;;;16.10;62.30;;;;;;5088242;28;20032;-13
2023/01/20 09:17:01;;;;;;;0.80;0.80;;;16.10;62.20;;;;;;5089022;28;20470;-34
2023/01/20 09:19:27;;;;;;;0.80;0.80;;;16.20;62.30;;;;;;5087910;28;20093;-26
2023/01/20 09:21:53;;;;;;;1.05;1.00;;;16.00;62.30;;;;;;5087865;28;20032;-20
2023/01/20 09:24:18;;;;;;;1.10;1.00;;;16.00;62.30;;;;;;5086661;28;20142;-26
2023/01/20 09:26:44;;;;;;;1.08;0.80;;;16.00;62.30;;;;;;5088930;28;20036;-14
2023/01/20 09:29:11;;;;;;;0.80;0.80;;;16.00;62.50;;;;;;5089168;28;20054;-35
2023/01/20 09:31:38;;;;;;;0.95;0.90;;;16.00;62.50;;;;;;5087423;28;20031;-26
2023/01/20 09:34:04;;;;;;;1.42;0.80;;;16.00;62.50;;;;;;5088356;28;20016;-11
2023/01/20 09:36:30;;;;;;;1.35;0.93;;;16.00;62.40;;;;;;5088157;28;20409;-11
2023/01/20 09:45:30;;;;;;;0.70;0.70;;;16.00;62.20;;;;;;5088590;28;20035;-26
2023/01/20 09:54:19;;;;;;;0.77;0.70;;;16.00;62.10;;;;;;5039282;28;20055;-12
2023/01/20 09:56:46;;;;;;;0.95;0.95;;;16.00;62.30;;;;;;5034113;28;20068;-19
2023/01/20 09:59:17;;;;;;;1.13;1.00;;;15.90;62.20;;;;;;5050448;28;20028;-18
2023/01/20 10:01:48;;;;;;;0.98;0.98;;;16.00;62.40;;;;;;5049241;28;20066;-16
2023/01/20 10:04:20;;;;;;;0.95;0.95;;;15.90;62.30;;;;;;5049143;28;20028;-16
2023/01/20 10:06:58;;;;;;;3.42;1.08;;;16.00;62.30;;;;;;5065930;28;20029;-18
2023/01/20 10:09:41;;;;;;;0.98;0.90;;;16.00;62.20;;;;;;5062433;28;20794;-12
2023/01/20 10:12:12;;;;;;;0.90;0.90;;;15.90;62.30;;;;;;5065918;28;20032;-17
2023/01/20 10:14:40;;;;;;;1.38;0.95;;;15.90;63.00;;;;;;5050239;28;20167;-19
2023/01/20 10:17:21;;;;;;;0.90;0.90;;;16.00;62.20;;;;;;5066577;28;20483;-20
2023/01/20 10:19:48;;;;;;;1.08;1.00;;;16.00;62.10;;;;;;5081455;28;20501;-12
2023/01/20 10:22:21;;;;;;;1.25;1.00;;;16.00;62.20;;;;;;5086243;28;20020;-16
2023/01/20 10:25:01;;;;;;;1.02;0.90;;;16.00;62.10;;;;;;5084421;28;20021;-12
2023/01/20 10:27:27;;;;;;;1.30;1.10;;;16.00;61.80;;;;;;5086128;28;20042;-32
2023/01/20 10:30:01;;;;;;;1.63;1.00;;;16.00;61.80;;;;;;5084404;28;20494;-19
2023/01/20 10:32:32;;;;;;;;;;;16.20;61.50;;;;;;5087369;28;20016;-28
2023/01/20 10:35:01;;;;;;;0.90;0.90;;;16.20;61.40;;;;;;5087519;28;19914;-15
2023/01/20 10:37:27;;;;;;;1.20;1.10;;;16.20;61.40;;;;;;5087226;28;20444;-32
2023/01/20 10:40:13;;;;;;;1.85;1.08;;;16.20;61.50;;;;;;5085190;28;20122;-15
2023/01/20 10:42:39;;;;;;;1.45;0.70;;;16.20;61.40;;;;;;5086336;28;20410;-26
2023/01/20 10:45:07;;;;;;;0.93;0.80;;;16.10;61.30;;;;;;5086641;28;20020;-15
2023/01/20 10:47:57;;;;;;;0.80;0.80;;;16.20;61.30;;;;;;5085803;28;20036;-21
2023/01/20 10:50:43;;;;;;;0.85;0.85;;;16.20;61.20;;;;;;5080206;28;20077;-32
2023/01/20 10:53:18;;;;;;;1.05;1.00;;;16.10;61.40;;;;;;5085554;28;20038;-13
2023/01/20 10:55:50;;;;;;;1.15;1.05;;;16.10;61.30;;;;;;5086437;28;20163;-24
2023/01/20 10:58:18;;;;;;;0.93;0.90;;;16.10;61.50;;;;;;5087980;28;20024;-20
2023/01/20 11:00:43;;;;;;;1.80;1.00;;;16.10;61.60;;;;;;5086232;28;20024;-21
2023/01/20 11:03:13;;;;;;;0.93;0.93;;;16.10;61.50;;;;;;5088737;28;20020;-21
2023/01/20 11:05:41;;;;;;;0.90;0.88;;;16.10;61.70;;;;;;5081792;28;20171;-20
2023/01/20 11:08:15;;;;;;;1.10;1.10;;;16.10;61.90;;;;;;5085732;28;20395;-12
2023/01/20 11:10:40;;;;;;;;;;;16.10;62.00;;;;;;5089052;28;20020;-22
2023/01/20 11:13:08;;;;;;;0.88;0.88;;;16.10;62.10;;;;;;5090127;28;21578;-15
2023/01/20 11:15:35;;;;;;;0.95;0.90;;;16.10;62.20;;;;;;5074050;28;20114;-19
2023/01/20 11:18:31;;;;;;;0.90;0.90;;;16.10;62.20;;;;;;5089087;28;20020;-23
2023/01/20 11:21:10;;;;;;;1.13;0.98;;;16.10;62.20;;;;;;5084957;28;20036;-29
2023/01/20 11:23:50;;;;;;;0.80;0.80;;;16.10;62.10;;;;;;5072364;28;20085;-11
2023/01/20 11:26:22;;;;;;;1.00;0.90;;;16.20;62.20;;;;;;5090567;28;20400;-11
2023/01/20 11:29:26;;;;;;;0.85;0.85;;;16.20;62.10;;;;;;5089427;28;20046;-24
2023/01/20 11:31:55;;;;;;;0.90;0.90;;;16.10;62.30;;;;;;5106178;28;20052;-17
2023/01/20 11:34:29;;;;;;;0.70;0.70;;;16.20;62.10;;;;;;5089578;28;20496;-21
2023/01/20 11:37:04;;;;;;;1.52;1.05;;;16.30;62.00;;;;;;5090553;28;20020;-14
2023/01/20 11:39:48;;;;;;;2.65;1.10;;;16.30;62.20;;;;;;5091698;28;20089;-26
2023/01/20 11:42:22;;;;;;;;;;;16.20;62.20;;;;;;5087941;28;20028;-12
2023/01/20 11:44:59;;;;;;;1.95;1.75;;;16.20;62.50;;;;;;5091082;28;19911;-11
2023/01/20 11:47:31;;;;;;;2.83;2.55;;;16.30;62.50;;;;;;5088874;28;20164;-14
2023/01/20 11:50:08;;;;;;;5.15;2.92;;;16.30;62.30;;;;;;4735805;28;10000659;-11
2023/01/20 11:52:35;;;;;;;3.30;2.95;;;16.30;62.30;;;;;;5085966;28;20090;-12
2023/01/20 11:55:06;;;;;;;5.18;3.47;;;16.30;62.30;;;;;;5085887;28;20079;-13
2023/01/20 11:57:32;;;;;;;5.65;4.00;;;16.20;62.20;;;;;;5086103;28;20750;-18
2023/01/20 11:59:57;;;;;;;4.55;4.15;;;16.30;62.40;;;;;;5087400;28;20028;-11
2023/01/20 12:02:23;;;;;;;5.50;4.70;;;16.30;62.30;;;;;;5085643;28;20737;-21
2023/01/20 12:05:01;;;;;;;7.47;5.15;;;16.30;62.40;;;;;;5084713;28;20024;-18
2023/01/20 12:07:29;;;;;;;6.13;4.55;;;16.30;62.40;;;;;;5100657;28;20113;-25
2023/01/20 12:10:01;;;;;;;5.68;4.88;;;16.30;62.30;;;;;;5082441;28;20024;-29
2023/01/20 12:12:37;;;;;;;6.70;5.00;;;16.30;62.30;;;;;;5084465;28;20497;-22
2023/01/20 12:15:05;;;;;;;5.43;4.63;;;16.20;62.30;;;;;;5079203;28;20027;-25
2023/01/20 12:17:45;;;;;;;5.68;4.68;;;16.30;62.30;;;;;;5086400;28;20422;-20
2023/01/20 12:20:21;;;;;;;4.90;4.30;;;16.30;62.30;;;;;;5083186;28;20063;-14
2023/01/20 12:23:20;;;;;;;4.68;4.28;;;16.30;62.30;;;;;;5085796;28;20123;-35
2023/01/20 12:25:45;;;;;;;5.70;4.30;;;16.30;62.10;;;;;;5081489;28;20028;-34
2023/01/20 12:28:19;;;;;;;5.65;4.35;;;16.30;62.20;;;;;;5084602;28;20433;-17
2023/01/20 12:30:57;;;;;;;5.88;4.47;;;16.30;62.20;;;;;;5084497;28;20044;-18
2023/01/20 12:33:24;;;;;;;5.07;4.47;;;16.30;62.10;;;;;;5083798;28;20061;-12
2023/01/20 12:36:18;;;;;;;6.03;4.50;;;16.30;62.10;;;;;;5083175;28;20024;-14
2023/01/20 12:38:47;;;;;;;4.70;3.70;;;16.30;62.80;;;;;;5082160;28;20020;-12
2023/01/20 12:41:24;;;;;;;6.00;4.20;;;16.30;62.10;;;;;;5083984;28;20040;-12
2023/01/20 12:44:12;;;;;;;4.72;3.67;;;16.30;62.10;;;;;;5068925;28;20212;-21
2023/01/20 12:46:41;;;;;;;4.00;3.60;;;16.30;62.00;;;;;;5080010;28;20127;-12
2023/01/20 12:49:18;;;;;;;4.22;3.90;;;16.30;62.00;;;;;;5078989;28;20624;-13
2023/01/20 12:52:15;;;;;;;3.85;3.55;;;16.20;62.40;;;;;;5080775;28;20105;-22
2023/01/20 12:55:23;;;;;;;5.05;3.67;;;16.30;62.00;;;;;;5082678;28;20024;-23
2023/01/20 12:58:07;;;;;;;3.63;3.33;;;16.40;61.60;;;;;;5079387;28;20023;-19
2023/01/20 13:00:50;;;;;;;4.27;3.87;;;16.30;61.80;;;;;;5082490;28;20036;-13
2023/01/20 13:03:38;;;;;;;3.60;3.40;;;16.40;61.60;;;;;;5082902;28;20075;-25
2023/01/20 13:06:16;;;;;;;3.70;3.40;;;16.50;60.90;;;;;;5080106;28;20111;-36
2023/01/20 13:09:03;;;;;;;5.47;3.90;;;16.40;61.60;;;;;;5086080;28;20565;-19
2023/01/20 13:11:57;;;;;;;3.67;3.35;;;16.40;61.30;;;;;;5084831;28;20031;-23
2023/01/20 13:14:30;;;;;;;3.72;3.38;;;16.40;61.50;;;;;;5083032;28;20133;-14